Time;durP1;ratioP1;P1;durP2;ratioP2;P2;SDS_P1;SDS_P2;PMS_P1;PMS_P2;Temp;Humidity;BMP_temperature;BMP_pressure;BME280_temperature;BME280_humidity;BME280_pressure;Samples;Min_cycle;Max_cycle;Signal;HPM_P1;HPM_P2
2023/11/09 00:01:46;;;;;;;42.00;11.03;;;1.90;99.90;;;;;;5072448;28;20999;-59
2023/11/09 00:04:12;;;;;;;64.90;11.90;;;1.90;99.90;;;;;;5079038;28;20462;-59
2023/11/09 00:06:37;;;;;;;91.57;12.80;;;1.80;99.90;;;;;;5076746;28;20511;-59
2023/11/09 00:09:06;;;;;;;67.73;13.20;;;1.80;99.90;;;;;;5069961;28;20480;-58
2023/11/09 00:11:31;;;;;;;42.33;11.87;;;1.80;99.90;;;;;;5068081;28;20766;-58
2023/11/09 00:13:57;;;;;;;55.47;12.50;;;1.70;99.90;;;;;;5070548;28;20473;-58
2023/11/09 00:16:23;;;;;;;41.30;10.80;;;1.70;99.90;;;;;;5071608;28;20193;-59
2023/11/09 00:18:49;;;;;;;29.57;11.10;;;1.60;99.90;;;;;;5075179;28;20731;-59
2023/11/09 00:21:14;;;;;;;26.10;10.20;;;1.50;99.90;;;;;;5061227;28;20475;-58
2023/11/09 00:23:40;;;;;;;23.00;10.70;;;1.40;99.90;;;;;;5068193;28;20698;-58
2023/11/09 00:26:08;;;;;;;15.97;10.07;;;1.40;99.90;;;;;;5072096;28;20177;-58
2023/11/09 00:28:34;;;;;;;25.43;10.23;;;1.30;99.90;;;;;;5070932;28;20187;-59
2023/11/09 00:30:59;;;;;;;18.63;10.10;;;1.30;99.90;;;;;;5075982;28;20444;-59
2023/11/09 00:33:25;;;;;;;18.10;10.30;;;1.30;99.90;;;;;;5059872;28;20847;-58
2023/11/09 00:35:52;;;;;;;14.13;9.40;;;1.30;99.90;;;;;;5068249;28;20190;-58
2023/11/09 00:38:19;;;;;;;15.70;9.90;;;1.30;99.90;;;;;;5066482;28;20660;-58
2023/11/09 00:40:46;;;;;;;17.67;10.00;;;1.30;99.90;;;;;;5074962;28;20789;-58
2023/11/09 00:43:11;;;;;;;15.03;9.63;;;1.30;99.90;;;;;;5078877;28;20901;-59
2023/11/09 00:45:37;;;;;;;15.97;10.53;;;1.30;99.90;;;;;;5071478;28;20420;-59
2023/11/09 00:48:03;;;;;;;15.97;10.00;;;1.30;99.90;;;;;;5068021;28;20435;-58
2023/11/09 00:50:29;;;;;;;21.33;10.30;;;1.30;99.90;;;;;;5070224;28;20750;-59
2023/11/09 00:52:55;;;;;;;19.37;9.07;;;1.20;99.90;;;;;;5078131;28;20447;-58
2023/11/09 00:55:20;;;;;;;18.73;10.00;;;1.20;99.90;;;;;;5076496;28;20215;-59
2023/11/09 00:57:46;;;;;;;23.63;9.10;;;1.20;99.90;;;;;;5064320;28;20803;-58
2023/11/09 01:00:12;;;;;;;22.03;9.83;;;1.10;99.90;;;;;;5066830;28;20181;-60
2023/11/09 01:02:39;;;;;;;22.00;10.27;;;1.10;99.90;;;;;;5072679;28;20194;-59
2023/11/09 01:05:07;;;;;;;15.70;9.90;;;1.10;99.90;;;;;;5070332;28;20514;-60
2023/11/09 01:07:33;;;;;;;16.40;8.97;;;1.10;99.90;;;;;;5066001;28;20424;-58
2023/11/09 01:09:59;;;;;;;227.27;16.43;;;1.10;99.90;;;;;;5062090;28;20428;-58
2023/11/09 01:12:26;;;;;;;24.27;9.47;;;1.10;99.90;;;;;;5071180;28;20442;-58
2023/11/09 01:14:52;;;;;;;72.87;11.17;;;1.00;99.90;;;;;;5067206;28;20898;-59
2023/11/09 01:17:18;;;;;;;14.40;8.40;;;0.90;99.90;;;;;;5070504;28;20425;-58
2023/11/09 01:19:43;;;;;;;34.30;9.43;;;0.90;99.90;;;;;;5075696;28;20469;-59
2023/11/09 01:22:09;;;;;;;86.33;11.17;;;0.90;99.90;;;;;;5063981;28;20201;-58
2023/11/09 01:24:35;;;;;;;78.30;10.63;;;0.90;99.90;;;;;;5066143;28;20634;-59
2023/11/09 01:27:00;;;;;;;134.90;11.97;;;0.80;99.90;;;;;;5063893;28;20177;-58
2023/11/09 01:29:26;;;;;;;94.93;10.83;;;0.80;99.90;;;;;;5080714;28;20425;-58
2023/11/09 01:31:54;;;;;;;55.40;10.33;;;0.70;99.90;;;;;;5074121;28;20550;-57
2023/11/09 01:34:20;;;;;;;19.90;8.60;;;0.60;99.90;;;;;;5060643;28;20212;-58
2023/11/09 01:36:46;;;;;;;12.73;7.60;;;0.60;99.90;;;;;;5071346;28;20449;-59
2023/11/09 01:39:14;;;;;;;82.50;12.63;;;0.50;99.90;;;;;;5082366;28;20231;-59
2023/11/09 01:41:42;;;;;;;26.10;9.20;;;0.50;99.90;;;;;;5067521;28;20638;-58
2023/11/09 01:44:07;;;;;;;17.67;8.10;;;0.40;99.90;;;;;;5068986;28;21085;-58
2023/11/09 01:46:33;;;;;;;19.67;9.53;;;0.40;99.90;;;;;;5073559;28;20510;-58
2023/11/09 01:48:59;;;;;;;18.33;10.50;;;0.40;99.90;;;;;;5066825;28;20782;-58
2023/11/09 01:51:27;;;;;;;16.60;9.73;;;0.40;99.90;;;;;;5074681;28;20204;-58
2023/11/09 01:53:53;;;;;;;41.57;10.10;;;0.40;99.90;;;;;;5082118;28;20419;-57
2023/11/09 01:56:19;;;;;;;25.77;9.20;;;0.50;99.90;;;;;;5071022;28;20456;-58
2023/11/09 01:58:46;;;;;;;43.47;10.07;;;0.50;99.90;;;;;;5068849;28;20240;-58
2023/11/09 02:01:13;;;;;;;16.13;8.90;;;0.40;99.90;;;;;;5082253;28;20450;-58
2023/11/09 02:03:41;;;;;;;23.13;9.77;;;0.40;99.90;;;;;;5076629;28;21003;-58
2023/11/09 02:06:09;;;;;;;15.83;9.30;;;0.40;99.90;;;;;;5068395;28;20886;-58
2023/11/09 02:08:38;;;;;;;16.97;8.53;;;0.40;99.90;;;;;;5069579;28;20504;-58
2023/11/09 02:11:05;;;;;;;18.07;8.90;;;0.40;99.90;;;;;;5068292;28;20518;-58
2023/11/09 02:13:32;;;;;;;10.80;7.83;;;0.40;99.90;;;;;;5062212;28;22246;-58
2023/11/09 02:15:59;;;;;;;12.00;7.67;;;0.40;99.90;;;;;;5067810;28;20485;-59
2023/11/09 02:18:26;;;;;;;21.43;7.50;;;0.40;99.90;;;;;;5080509;28;20564;-59
2023/11/09 02:20:52;;;;;;;49.10;8.60;;;0.30;99.90;;;;;;5064910;28;20438;-58
2023/11/09 02:23:23;;;;;;;15.50;8.33;;;0.30;99.90;;;;;;5066938;28;20950;-58
2023/11/09 02:25:49;;;;;;;22.63;9.20;;;0.30;99.90;;;;;;5077864;28;20956;-59
2023/11/09 02:28:15;;;;;;;19.37;8.67;;;0.30;99.90;;;;;;5068147;28;20964;-59
2023/11/09 02:30:41;;;;;;;12.87;8.13;;;0.30;99.90;;;;;;5072170;28;20435;-59
2023/11/09 02:33:08;;;;;;;55.77;9.93;;;0.20;99.90;;;;;;5064772;28;20341;-59
2023/11/09 02:35:34;;;;;;;19.23;10.00;;;0.30;99.90;;;;;;5068623;28;20436;-59
2023/11/09 02:37:59;;;;;;;18.27;9.10;;;0.20;99.90;;;;;;5068160;28;20510;-59
2023/11/09 02:40:25;;;;;;;38.90;9.07;;;0.20;99.90;;;;;;5072533;28;21273;-58
2023/11/09 02:42:51;;;;;;;28.73;11.37;;;0.20;99.90;;;;;;5074429;28;20212;-59
2023/11/09 02:45:17;;;;;;;29.03;9.20;;;0.20;99.90;;;;;;5065866;28;20943;-58
2023/11/09 02:47:43;;;;;;;23.13;9.10;;;0.20;99.90;;;;;;5071297;28;20188;-59
2023/11/09 02:50:09;;;;;;;17.20;8.27;;;0.20;99.90;;;;;;5073449;28;20422;-58
2023/11/09 02:52:35;;;;;;;20.40;9.20;;;0.20;99.90;;;;;;5078221;28;20250;-58
2023/11/09 02:55:00;;;;;;;13.60;8.53;;;0.20;99.90;;;;;;5074313;28;20974;-58
2023/11/09 02:57:27;;;;;;;11.40;7.67;;;0.30;99.90;;;;;;5069259;28;20190;-58
2023/11/09 02:59:54;;;;;;;12.47;6.90;;;0.30;99.90;;;;;;5073039;28;20206;-59
2023/11/09 03:02:20;;;;;;;10.57;7.40;;;0.30;99.90;;;;;;5070015;28;20504;-58
2023/11/09 03:04:46;;;;;;;12.07;6.53;;;0.30;99.90;;;;;;5073934;28;20418;-59
2023/11/09 03:07:15;;;;;;;11.50;6.73;;;0.30;99.90;;;;;;5074075;28;20423;-58
2023/11/09 03:09:41;;;;;;;12.50;7.10;;;0.40;99.90;;;;;;5068865;28;20420;-58
2023/11/09 03:12:07;;;;;;;12.70;7.30;;;0.40;99.90;;;;;;5063244;28;20954;-58
2023/11/09 03:14:34;;;;;;;11.83;6.20;;;0.40;99.90;;;;;;5067433;28;20413;-57
2023/11/09 03:17:07;;;;;;;12.60;7.10;;;0.40;99.90;;;;;;5073556;28;20447;-58
2023/11/09 03:19:33;;;;;;;11.20;7.20;;;0.40;99.90;;;;;;5065653;28;20467;-58
2023/11/09 03:21:59;;;;;;;8.57;6.20;;;0.40;99.90;;;;;;5065973;28;20805;-58
2023/11/09 03:24:24;;;;;;;8.17;5.97;;;0.40;99.90;;;;;;5073138;28;20174;-58
2023/11/09 03:26:50;;;;;;;7.60;5.30;;;0.40;99.90;;;;;;5072176;28;20181;-58
2023/11/09 03:29:16;;;;;;;8.47;6.50;;;0.40;99.90;;;;;;5071258;28;20272;-58
2023/11/09 03:31:42;;;;;;;8.27;6.20;;;0.30;99.90;;;;;;5074494;28;20705;-59
2023/11/09 03:34:08;;;;;;;8.43;5.60;;;0.30;99.90;;;;;;5066330;28;20242;-59
2023/11/09 03:36:34;;;;;;;8.87;6.30;;;0.30;99.90;;;;;;5069836;28;20430;-58
2023/11/09 03:39:00;;;;;;;9.57;6.47;;;0.40;99.90;;;;;;5069326;28;20204;-58
2023/11/09 03:41:26;;;;;;;11.97;6.60;;;0.40;99.90;;;;;;5072351;28;20827;-58
2023/11/09 03:43:53;;;;;;;10.07;6.30;;;0.40;99.90;;;;;;5062761;28;20559;-58
2023/11/09 03:46:21;;;;;;;9.83;6.57;;;0.40;99.90;;;;;;5065699;28;20183;-58
2023/11/09 03:48:47;;;;;;;10.37;6.03;;;0.40;99.90;;;;;;5065315;28;20471;-58
2023/11/09 03:51:13;;;;;;;11.13;6.13;;;0.40;99.90;;;;;;5067748;28;20872;-58
2023/11/09 03:53:39;;;;;;;9.50;5.87;;;0.40;99.90;;;;;;5071932;28;20977;-59
2023/11/09 03:56:04;;;;;;;9.03;6.10;;;0.40;99.90;;;;;;5072170;28;20547;-58
2023/11/09 03:58:30;;;;;;;7.93;5.57;;;0.40;99.90;;;;;;5075988;28;20474;-59
2023/11/09 04:00:57;;;;;;;8.20;6.40;;;0.40;99.90;;;;;;5066435;28;20215;-59
2023/11/09 04:03:23;;;;;;;11.20;6.17;;;0.40;99.90;;;;;;5068233;28;20453;-59
2023/11/09 04:05:48;;;;;;;8.80;5.63;;;0.40;99.90;;;;;;5070558;28;20922;-59
2023/11/09 04:08:14;;;;;;;7.97;5.30;;;0.40;99.90;;;;;;5071834;28;20572;-58
2023/11/09 04:10:40;;;;;;;9.97;6.23;;;0.40;99.90;;;;;;5075138;28;20184;-57
2023/11/09 04:13:05;;;;;;;7.87;6.00;;;0.40;99.90;;;;;;5067310;28;20690;-59
2023/11/09 04:15:31;;;;;;;7.07;5.73;;;0.40;99.90;;;;;;5069327;28;20665;-59
2023/11/09 04:17:56;;;;;;;7.90;5.47;;;0.40;99.90;;;;;;5063472;28;20196;-58
2023/11/09 04:20:22;;;;;;;8.90;5.30;;;0.40;99.90;;;;;;5066052;28;20671;-60
2023/11/09 04:22:48;;;;;;;9.30;6.40;;;0.40;99.90;;;;;;5068519;28;20200;-58
2023/11/09 04:25:14;;;;;;;10.70;5.77;;;0.40;99.90;;;;;;5079969;28;20477;-58
2023/11/09 04:27:43;;;;;;;11.60;6.20;;;0.40;99.90;;;;;;5080521;28;20184;-59
2023/11/09 04:30:15;;;;;;;8.60;5.47;;;0.40;99.90;;;;;;5069152;28;20431;-58
2023/11/09 04:32:41;;;;;;;9.00;6.10;;;0.50;99.90;;;;;;5071414;28;21262;-58
2023/11/09 04:35:08;;;;;;;7.23;5.50;;;0.50;99.90;;;;;;5073732;28;20431;-58
2023/11/09 04:37:35;;;;;;;9.47;5.93;;;0.50;99.90;;;;;;5065228;28;20929;-59
2023/11/09 04:40:12;;;;;;;9.00;5.90;;;0.50;99.90;;;;;;5063343;28;20504;-58
2023/11/09 04:42:39;;;;;;;7.57;5.90;;;0.50;99.90;;;;;;5069220;28;20538;-58
2023/11/09 04:45:11;;;;;;;9.90;5.90;;;0.50;99.90;;;;;;5072411;28;20469;-59
2023/11/09 04:47:41;;;;;;;8.10;5.67;;;0.40;99.90;;;;;;5063146;28;20430;-58
2023/11/09 04:50:21;;;;;;;8.80;5.70;;;0.40;99.90;;;;;;5075339;28;20440;-59
2023/11/09 04:52:57;;;;;;;7.03;5.53;;;0.40;99.90;;;;;;5071327;28;20522;-59
2023/11/09 04:55:32;;;;;;;7.50;5.50;;;0.40;99.90;;;;;;5068833;28;20427;-58
2023/11/09 05:08:55;;;;;;;7.33;5.70;;;0.40;99.90;;;;;;5071164;28;20445;-57
2023/11/09 05:11:20;;;;;;;9.67;5.50;;;0.50;99.90;;;;;;5064464;28;20451;-59
2023/11/09 05:13:46;;;;;;;6.10;5.00;;;0.50;99.90;;;;;;5066506;28;20178;-59
2023/11/09 05:16:12;;;;;;;12.67;5.87;;;0.50;99.90;;;;;;5065906;28;20180;-59
2023/11/09 05:18:47;;;;;;;8.67;5.63;;;0.50;99.90;;;;;;5065642;28;20200;-59
2023/11/09 05:21:12;;;;;;;10.03;5.93;;;0.50;99.90;;;;;;5064684;28;21090;-59
2023/11/09 05:23:38;;;;;;;8.57;6.10;;;0.50;99.90;;;;;;5070516;28;20431;-59
2023/11/09 05:26:04;;;;;;;8.13;5.53;;;0.50;99.90;;;;;;5065676;28;21124;-59
2023/11/09 05:28:29;;;;;;;9.23;6.13;;;0.50;99.90;;;;;;5064884;28;20180;-59
2023/11/09 05:30:55;;;;;;;13.17;5.50;;;0.50;99.90;;;;;;5070772;28;20264;-59
2023/11/09 05:33:21;;;;;;;8.60;6.40;;;0.50;99.90;;;;;;5056989;28;20178;-60
2023/11/09 05:35:48;;;;;;;7.37;5.63;;;0.50;99.90;;;;;;5064370;28;20439;-57
2023/11/09 05:38:14;;;;;;;5.93;5.07;;;0.50;99.90;;;;;;5065849;28;20351;-59
2023/11/09 05:40:42;;;;;;;9.43;6.00;;;0.50;99.90;;;;;;5073847;28;20521;-56
2023/11/09 05:43:09;;;;;;;8.30;5.67;;;0.50;99.90;;;;;;5062531;28;20202;-59
2023/11/09 05:45:36;;;;;;;11.30;6.23;;;0.50;99.90;;;;;;5065312;28;20430;-60
2023/11/09 05:48:01;;;;;;;8.80;5.80;;;0.50;99.90;;;;;;5064011;28;20442;-59
2023/11/09 05:50:27;;;;;;;9.83;7.40;;;0.50;99.90;;;;;;5067731;28;20422;-60
2023/11/09 05:52:53;;;;;;;12.43;7.60;;;0.50;99.90;;;;;;5074805;28;20216;-61
2023/11/09 05:55:18;;;;;;;13.30;7.70;;;0.50;99.90;;;;;;5077121;28;22030;-60
2023/11/09 05:57:44;;;;;;;19.23;6.43;;;0.50;99.90;;;;;;5080269;28;20177;-59
2023/11/09 06:00:10;;;;;;;13.70;7.37;;;0.50;99.90;;;;;;5071681;28;20201;-60
2023/11/09 06:02:36;;;;;;;14.43;7.43;;;0.60;99.90;;;;;;5072596;28;20291;-60
2023/11/09 06:05:03;;;;;;;17.90;8.70;;;0.60;99.90;;;;;;5073163;28;20561;-59
2023/11/09 06:07:30;;;;;;;16.40;9.17;;;0.60;99.90;;;;;;5077305;28;20184;-59
2023/11/09 06:09:56;;;;;;;12.73;7.80;;;0.60;99.90;;;;;;5078157;28;20970;-60
2023/11/09 06:12:22;;;;;;;25.70;9.80;;;0.60;99.90;;;;;;5070225;28;20502;-59
2023/11/09 06:14:50;;;;;;;16.80;8.63;;;0.60;99.90;;;;;;5071129;28;21265;-59
2023/11/09 06:17:16;;;;;;;14.30;8.37;;;0.60;99.90;;;;;;5072743;28;20175;-60
2023/11/09 06:19:42;;;;;;;21.30;10.17;;;0.60;99.90;;;;;;5077601;28;20509;-61
2023/11/09 06:22:07;;;;;;;24.40;10.80;;;0.60;99.90;;;;;;5083538;28;20261;-59
2023/11/09 06:24:33;;;;;;;19.50;11.60;;;0.60;99.90;;;;;;5078016;28;20527;-60
2023/11/09 06:27:00;;;;;;;19.20;10.97;;;0.60;99.90;;;;;;5068756;28;20203;-58
2023/11/09 06:29:27;;;;;;;17.13;9.90;;;0.60;99.90;;;;;;5068451;28;20188;-59
2023/11/09 06:31:53;;;;;;;21.20;10.23;;;0.60;99.90;;;;;;5080169;28;20434;-60
2023/11/09 06:34:19;;;;;;;30.43;14.40;;;0.60;99.90;;;;;;5084463;28;20420;-60
2023/11/09 06:36:45;;;;;;;28.43;13.13;;;0.70;99.90;;;;;;5080592;28;20199;-60
2023/11/09 06:39:22;;;;;;;16.97;9.50;;;0.70;99.90;;;;;;5070391;28;20229;-59
2023/11/09 06:41:48;;;;;;;16.20;8.23;;;0.70;99.90;;;;;;5072176;28;20461;-60
2023/11/09 06:44:15;;;;;;;18.00;7.80;;;0.70;99.90;;;;;;5076305;28;20442;-60
2023/11/09 06:46:41;;;;;;;16.33;7.97;;;0.70;99.90;;;;;;5070926;28;20989;-60
2023/11/09 06:49:07;;;;;;;14.57;7.40;;;0.70;99.90;;;;;;5066396;28;20419;-59
2023/11/09 06:51:34;;;;;;;11.30;7.30;;;0.70;99.90;;;;;;5068626;28;20957;-60
2023/11/09 06:54:00;;;;;;;14.87;7.43;;;0.70;99.90;;;;;;5070754;28;20457;-59
2023/11/09 06:56:27;;;;;;;10.33;7.20;;;0.70;99.90;;;;;;5077258;28;20477;-59
2023/11/09 06:58:53;;;;;;;12.97;7.70;;;0.70;99.90;;;;;;5077872;28;20461;-59
2023/11/09 07:01:19;;;;;;;13.93;7.43;;;0.70;99.90;;;;;;5074938;28;20563;-59
2023/11/09 07:03:45;;;;;;;16.93;8.50;;;0.70;99.90;;;;;;5064564;28;20442;-59
2023/11/09 07:06:11;;;;;;;13.93;7.60;;;0.70;99.90;;;;;;5070156;28;20407;-60
2023/11/09 07:08:37;;;;;;;17.53;10.23;;;0.80;99.90;;;;;;5068217;28;20185;-59
2023/11/09 07:11:02;;;;;;;19.13;10.70;;;0.80;99.90;;;;;;5070806;28;20457;-59
2023/11/09 07:13:28;;;;;;;19.50;10.57;;;0.80;99.90;;;;;;5067112;28;20206;-59
2023/11/09 07:15:53;;;;;;;32.37;13.47;;;0.80;99.90;;;;;;5069862;28;20173;-58
2023/11/09 07:18:19;;;;;;;20.77;10.67;;;0.80;99.90;;;;;;5066439;28;20861;-60
2023/11/09 07:20:45;;;;;;;19.30;9.77;;;0.90;99.90;;;;;;5069438;28;20169;-60
2023/11/09 07:23:11;;;;;;;20.27;9.63;;;0.90;99.90;;;;;;5078071;28;20167;-60
2023/11/09 07:25:37;;;;;;;20.40;10.40;;;1.00;99.90;;;;;;5074102;28;20931;-59
2023/11/09 07:28:04;;;;;;;16.10;9.30;;;1.00;99.90;;;;;;5059539;28;20266;-60
2023/11/09 07:30:32;;;;;;;17.07;10.00;;;1.10;99.90;;;;;;5070440;28;20554;-59
2023/11/09 07:33:02;;;;;;;19.67;9.63;;;1.10;99.90;;;;;;5071252;28;20909;-60
2023/11/09 07:35:30;;;;;;;25.33;10.40;;;1.20;99.90;;;;;;5066373;28;20412;-59
2023/11/09 07:37:56;;;;;;;25.97;12.40;;;1.20;99.90;;;;;;5074004;28;20419;-60
2023/11/09 07:40:22;;;;;;;19.80;11.23;;;1.20;99.90;;;;;;5074365;28;20447;-60
2023/11/09 07:42:49;;;;;;;13.80;8.60;;;1.30;99.90;;;;;;5073397;28;20496;-60
2023/11/09 07:45:16;;;;;;;13.93;7.87;;;1.30;99.90;;;;;;5071023;28;20442;-59
2023/11/09 07:47:43;;;;;;;16.53;9.17;;;1.30;99.90;;;;;;5075238;28;20415;-60
2023/11/09 07:50:09;;;;;;;20.43;10.57;;;1.40;99.90;;;;;;5072106;28;20423;-59
2023/11/09 07:52:38;;;;;;;18.53;10.63;;;1.40;99.90;;;;;;5080665;28;20493;-60
2023/11/09 07:55:07;;;;;;;22.90;12.13;;;1.50;99.90;;;;;;5067612;28;20484;-59
2023/11/09 07:57:34;;;;;;;29.90;15.40;;;1.50;99.90;;;;;;5065938;28;20428;-60
2023/11/09 08:00:00;;;;;;;42.07;14.43;;;1.60;99.90;;;;;;5070175;28;20453;-59
2023/11/09 08:02:26;;;;;;;26.47;11.97;;;1.70;99.90;;;;;;5071090;28;20529;-60
2023/11/09 08:04:54;;;;;;;24.63;11.67;;;1.80;99.90;;;;;;5071788;28;21000;-60
2023/11/09 08:07:21;;;;;;;24.17;11.97;;;1.80;99.90;;;;;;5083266;28;20999;-59
2023/11/09 08:09:47;;;;;;;29.17;13.90;;;1.90;99.90;;;;;;5068649;28;20416;-60
2023/11/09 08:12:13;;;;;;;28.80;15.60;;;2.00;99.90;;;;;;5066894;28;20543;-60
2023/11/09 08:14:38;;;;;;;22.30;10.63;;;2.10;99.90;;;;;;5067070;28;20570;-59
2023/11/09 08:17:04;;;;;;;23.47;8.80;;;2.20;99.90;;;;;;5067968;28;20240;-60
2023/11/09 08:19:30;;;;;;;13.70;7.10;;;2.40;99.90;;;;;;5064301;28;20564;-60
2023/11/09 08:21:56;;;;;;;9.50;6.17;;;2.50;99.90;;;;;;5061522;28;20194;-59
2023/11/09 08:24:22;;;;;;;8.57;5.63;;;2.70;99.90;;;;;;5067562;28;20409;-60
2023/11/09 08:26:48;;;;;;;12.83;6.37;;;2.90;99.90;;;;;;5065534;28;20962;-60
2023/11/09 08:29:14;;;;;;;7.93;5.57;;;3.00;99.90;;;;;;5072130;28;20170;-59
2023/11/09 08:31:40;;;;;;;9.30;5.30;;;3.10;99.90;;;;;;5078330;28;20491;-60
2023/11/09 08:34:08;;;;;;;7.97;5.50;;;3.30;99.90;;;;;;5067669;28;20202;-59
2023/11/09 08:36:34;;;;;;;8.83;5.53;;;3.40;99.90;;;;;;5060223;28;20232;-60
2023/11/09 08:39:01;;;;;;;8.70;5.27;;;3.50;99.90;;;;;;5069471;28;20464;-60
2023/11/09 08:41:26;;;;;;;5.50;4.30;;;3.60;99.90;;;;;;5060267;28;21027;-60
2023/11/09 08:43:52;;;;;;;6.50;3.77;;;3.70;99.90;;;;;;5072545;28;21045;-59
2023/11/09 08:46:18;;;;;;;5.37;3.80;;;3.80;99.90;;;;;;5073213;28;20173;-59
2023/11/09 08:48:43;;;;;;;8.50;4.47;;;3.90;99.90;;;;;;5072013;28;20230;-60
2023/11/09 08:51:13;;;;;;;5.90;4.23;;;4.00;99.90;;;;;;5059224;28;20202;-60
2023/11/09 08:53:42;;;;;;;4.87;3.17;;;4.10;99.90;;;;;;5066039;28;20202;-60
2023/11/09 08:56:10;;;;;;;8.30;4.23;;;4.20;99.90;;;;;;5068327;28;20977;-59
2023/11/09 08:58:38;;;;;;;3.77;3.27;;;4.30;99.90;;;;;;5073618;28;20456;-60
2023/11/09 09:01:06;;;;;;;3.70;3.00;;;4.40;99.90;;;;;;5066280;28;20451;-59
2023/11/09 09:03:33;;;;;;;5.47;2.73;;;4.50;99.90;;;;;;5067475;28;20932;-60
2023/11/09 09:06:01;;;;;;;4.93;2.53;;;4.70;99.90;;;;;;5067907;28;20428;-60
2023/11/09 09:08:27;;;;;;;3.10;2.57;;;4.80;99.90;;;;;;5073533;28;20468;-60
2023/11/09 09:10:56;;;;;;;4.90;2.20;;;4.90;99.90;;;;;;5078082;28;21024;-60
2023/11/09 09:13:26;;;;;;;3.20;2.60;;;4.90;99.90;;;;;;5072051;28;20175;-60
2023/11/09 09:15:53;;;;;;;4.20;2.93;;;5.00;99.90;;;;;;5075018;28;20412;-60
2023/11/09 09:18:20;;;;;;;3.63;2.60;;;5.10;99.90;;;;;;5067986;28;20518;-59
2023/11/09 09:20:46;;;;;;;3.30;2.30;;;5.20;99.90;;;;;;5066742;28;21301;-60
2023/11/09 09:23:11;;;;;;;2.70;2.47;;;5.30;99.90;;;;;;5071439;28;20404;-59
2023/11/09 09:25:38;;;;;;;2.73;2.33;;;5.40;99.90;;;;;;5082604;28;20184;-60
2023/11/09 09:28:04;;;;;;;4.10;2.90;;;5.40;99.90;;;;;;5064492;28;20172;-59
2023/11/09 09:30:30;;;;;;;3.10;2.30;;;5.50;99.90;;;;;;5067821;28;20415;-60
2023/11/09 09:32:56;;;;;;;3.37;2.43;;;5.50;99.90;;;;;;5070435;28;20472;-60
2023/11/09 09:35:25;;;;;;;4.27;2.53;;;5.60;99.90;;;;;;5075148;28;20202;-61
2023/11/09 09:37:51;;;;;;;3.10;2.50;;;5.60;99.90;;;;;;5064419;28;20416;-60
2023/11/09 09:40:23;;;;;;;3.80;2.37;;;5.60;99.90;;;;;;5074037;28;20495;-60
2023/11/09 09:42:53;;;;;;;3.03;2.10;;;5.70;99.90;;;;;;5067945;28;20449;-60
2023/11/09 09:45:22;;;;;;;4.90;2.50;;;5.70;99.90;;;;;;5083151;28;20433;-60
2023/11/09 09:47:52;;;;;;;2.80;2.23;;;5.70;99.90;;;;;;5070261;28;20426;-60
2023/11/09 09:50:20;;;;;;;3.70;2.17;;;5.70;99.90;;;;;;5078018;28;20419;-60
2023/11/09 09:52:49;;;;;;;4.00;2.50;;;5.70;99.90;;;;;;5075275;28;20457;-60
2023/11/09 09:55:18;;;;;;;4.50;2.73;;;5.80;99.90;;;;;;5065076;28;20486;-60
2023/11/09 09:57:45;;;;;;;2.50;2.17;;;5.80;99.90;;;;;;5087025;28;20436;-60
2023/11/09 10:00:23;;;;;;;4.13;2.43;;;5.80;99.90;;;;;;5071516;28;20998;-60
2023/11/09 10:02:50;;;;;;;2.40;2.20;;;5.80;99.90;;;;;;5077111;28;20424;-60
2023/11/09 10:05:17;;;;;;;4.10;2.23;;;5.90;99.90;;;;;;5069352;28;21101;-61
2023/11/09 10:08:05;;;;;;;5.03;2.40;;;5.90;99.90;;;;;;5083572;28;20500;-59
2023/11/09 10:10:35;;;;;;;7.70;2.43;;;6.00;99.90;;;;;;5070712;28;20419;-59
2023/11/09 10:13:14;;;;;;;2.77;2.23;;;6.00;99.90;;;;;;5075012;28;20444;-59
2023/11/09 10:15:44;;;;;;;4.90;2.83;;;6.10;99.90;;;;;;5076777;28;20498;-59
2023/11/09 10:18:12;;;;;;;3.80;2.90;;;6.10;99.90;;;;;;5072690;28;20422;-60
2023/11/09 10:20:40;;;;;;;9.10;2.80;;;6.20;99.90;;;;;;5076855;28;20927;-60
2023/11/09 10:23:11;;;;;;;3.63;2.40;;;6.20;99.90;;;;;;5063964;28;20472;-59
2023/11/09 10:25:36;;;;;;;3.30;2.70;;;6.30;99.90;;;;;;5067299;28;20409;-59
2023/11/09 10:28:07;;;;;;;2.90;2.13;;;6.40;99.90;;;;;;5074547;28;20487;-59
2023/11/09 10:30:41;;;;;;;2.87;2.10;;;6.50;99.90;;;;;;5073970;28;20174;-59
2023/11/09 10:33:07;;;;;;;4.80;1.97;;;6.60;99.90;;;;;;5080072;28;21118;-59
2023/11/09 10:35:40;;;;;;;1.90;1.70;;;6.70;99.90;;;;;;5064399;28;20476;-59
2023/11/09 10:38:09;;;;;;;2.10;1.90;;;6.80;99.90;;;;;;5069416;28;20424;-59
2023/11/09 10:40:42;;;;;;;2.20;2.00;;;6.90;99.90;;;;;;5074760;28;20443;-59
2023/11/09 10:43:09;;;;;;;2.70;1.80;;;7.00;99.90;;;;;;5071768;28;20528;-59
2023/11/09 10:45:38;;;;;;;2.70;2.20;;;7.10;99.90;;;;;;5080824;28;20411;-59
2023/11/09 10:48:09;;;;;;;3.43;2.20;;;7.20;99.90;;;;;;5072243;28;20481;-59
2023/11/09 10:50:44;;;;;;;1.93;1.83;;;7.30;99.90;;;;;;5061964;28;20431;-59
2023/11/09 10:53:13;;;;;;;6.70;1.97;;;7.40;99.90;;;;;;5072283;28;20894;-59
2023/11/09 10:55:43;;;;;;;2.53;1.73;;;7.40;99.90;;;;;;5076598;28;21119;-60
2023/11/09 10:58:13;;;;;;;2.03;1.60;;;7.50;99.90;;;;;;5073967;28;20434;-60
2023/11/09 11:00:42;;;;;;;2.60;1.53;;;7.60;99.90;;;;;;5077114;28;20428;-59
2023/11/09 11:03:15;;;;;;;1.80;1.50;;;7.60;99.90;;;;;;5068582;28;21061;-60
2023/11/09 11:05:46;;;;;;;1.87;1.77;;;7.70;99.90;;;;;;5072569;28;20412;-59
2023/11/09 11:08:15;;;;;;;3.00;1.70;;;7.70;99.90;;;;;;5062412;28;20441;-59
2023/11/09 11:10:51;;;;;;;2.10;1.60;;;7.80;99.90;;;;;;5072969;28;20886;-59
2023/11/09 11:13:18;;;;;;;4.33;1.70;;;7.80;99.90;;;;;;5085001;28;20408;-59
2023/11/09 11:15:50;;;;;;;2.97;1.43;;;7.80;99.90;;;;;;5076392;28;20411;-59
2023/11/09 11:18:51;;;;;;;3.33;1.77;;;7.90;99.90;;;;;;5080688;28;20535;-59
2023/11/09 11:21:28;;;;;;;4.20;1.73;;;7.90;99.90;;;;;;5072994;28;20532;-59
2023/11/09 11:24:04;;;;;;;1.50;1.40;;;7.90;99.90;;;;;;5073864;28;20411;-59
2023/11/09 11:26:41;;;;;;;1.43;1.30;;;7.90;99.90;;;;;;5067646;28;20442;-59
2023/11/09 11:29:07;;;;;;;1.70;1.43;;;7.90;99.90;;;;;;5071885;28;20417;-59
2023/11/09 11:31:38;;;;;;;1.53;1.43;;;7.90;99.90;;;;;;5067220;28;20911;-59
2023/11/09 11:34:03;;;;;;;3.43;1.63;;;7.90;99.90;;;;;;5066667;28;20182;-59
2023/11/09 11:36:33;;;;;;;2.63;1.60;;;8.00;99.90;;;;;;5083676;28;20429;-59
2023/11/09 11:39:12;;;;;;;2.00;1.43;;;8.00;99.90;;;;;;5081800;28;20232;-59
2023/11/09 11:41:38;;;;;;;1.73;1.60;;;8.10;99.90;;;;;;5067807;28;20533;-59
2023/11/09 11:44:05;;;;;;;3.90;1.90;;;8.30;99.90;;;;;;5066543;28;20927;-59
2023/11/09 11:46:34;;;;;;;2.33;1.67;;;8.40;99.90;;;;;;5071025;28;20420;-60
2023/11/09 11:49:00;;;;;;;9.80;2.10;;;8.60;99.90;;;;;;5069815;28;20415;-59
2023/11/09 11:51:27;;;;;;;2.60;1.83;;;9.00;99.90;;;;;;5069968;28;20460;-60
2023/11/09 11:54:20;;;;;;;4.03;1.93;;;9.40;99.90;;;;;;5067462;28;21033;-59
2023/11/09 11:56:51;;;;;;;2.20;1.90;;;9.60;99.90;;;;;;5059554;28;20426;-60
2023/11/09 11:59:16;;;;;;;5.60;1.97;;;9.50;99.90;;;;;;5068511;28;20471;-59
2023/11/09 12:01:50;;;;;;;2.20;2.00;;;9.40;99.90;;;;;;5071608;28;20439;-59
2023/11/09 12:04:17;;;;;;;2.33;1.70;;;9.50;99.90;;;;;;5074249;28;20186;-59
2023/11/09 12:06:46;;;;;;;2.33;2.00;;;9.70;99.90;;;;;;5082642;28;20440;-59
2023/11/09 12:09:15;;;;;;;3.27;2.00;;;10.00;99.90;;;;;;5068623;28;20535;-60
2023/11/09 12:11:43;;;;;;;7.70;2.67;;;10.20;99.10;;;;;;5060875;28;20539;-60
2023/11/09 12:14:09;;;;;;;2.00;1.80;;;10.20;98.30;;;;;;5067234;28;20478;-60
2023/11/09 12:16:36;;;;;;;2.10;1.80;;;10.10;98.00;;;;;;5079252;28;20748;-59
2023/11/09 12:19:04;;;;;;;2.20;1.60;;;9.80;99.90;;;;;;5079563;28;20962;-59
2023/11/09 12:21:30;;;;;;;2.40;1.73;;;9.60;99.90;;;;;;5067300;28;20935;-59
2023/11/09 12:23:57;;;;;;;1.80;1.70;;;9.40;99.90;;;;;;5075231;28;20427;-59
2023/11/09 12:26:24;;;;;;;2.90;1.83;;;9.20;99.90;;;;;;5080693;28;20174;-59
2023/11/09 12:28:54;;;;;;;3.17;2.40;;;9.10;99.90;;;;;;5083603;28;20415;-59
2023/11/09 12:31:25;;;;;;;2.33;2.13;;;9.00;99.90;;;;;;5064699;28;20968;-59
2023/11/09 12:33:59;;;;;;;3.60;2.30;;;8.90;99.90;;;;;;5067151;28;20472;-60
2023/11/09 12:36:25;;;;;;;1.73;1.63;;;8.80;99.90;;;;;;5084571;28;20495;-59
2023/11/09 12:38:52;;;;;;;4.53;1.97;;;8.80;99.90;;;;;;5066048;28;20973;-59
2023/11/09 12:41:24;;;;;;;2.87;2.00;;;8.70;99.90;;;;;;5066216;28;20217;-59
2023/11/09 12:43:50;;;;;;;2.73;1.73;;;8.70;99.90;;;;;;5065613;28;20424;-59
2023/11/09 12:46:19;;;;;;;1.57;1.47;;;8.70;99.90;;;;;;5072624;28;20505;-59
2023/11/09 12:48:48;;;;;;;2.33;1.90;;;8.60;99.90;;;;;;5077051;28;20487;-59
2023/11/09 12:51:21;;;;;;;3.70;1.83;;;8.60;99.90;;;;;;5081417;28;20559;-59
2023/11/09 12:53:50;;;;;;;5.70;2.40;;;8.60;99.90;;;;;;5069920;28;20957;-59
2023/11/09 12:56:17;;;;;;;6.33;1.90;;;8.60;99.90;;;;;;5069173;28;20497;-59
2023/11/09 12:58:43;;;;;;;3.50;2.20;;;8.60;99.90;;;;;;5072284;28;20466;-59
2023/11/09 13:01:14;;;;;;;3.50;2.60;;;8.60;99.90;;;;;;5075724;28;20436;-59
2023/11/09 13:03:46;;;;;;;6.00;2.90;;;8.70;99.90;;;;;;5074099;28;20562;-59